sensor_id;sensor_type;location;lat;lon;timestamp;P1;durP1;ratioP1;P2;durP2;ratioP2
35114;SDS011;21292;52.416;13.046;2023-12-20T00:01:31;30.35;;;13.30;;
35114;SDS011;21292;52.416;13.046;2023-12-20T00:04:00;33.88;;;13.77;;
35114;SDS011;21292;52.416;13.046;2023-12-20T00:06:29;33.03;;;13.20;;
35114;SDS011;21292;52.416;13.046;2023-12-20T00:09:00;30.08;;;12.90;;
35114;SDS011;21292;52.416;13.046;2023-12-20T00:11:28;31.85;;;14.02;;
35114;SDS011;21292;52.416;13.046;2023-12-20T00:13:58;29.58;;;13.55;;
35114;SDS011;21292;52.416;13.046;2023-12-20T00:16:26;31.27;;;13.38;;
35114;SDS011;21292;52.416;13.046;2023-12-20T00:18:55;30.52;;;13.63;;
35114;SDS011;21292;52.416;13.046;2023-12-20T00:21:23;31.98;;;13.25;;
35114;SDS011;21292;52.416;13.046;2023-12-20T00:23:52;33.10;;;13.52;;
35114;SDS011;21292;52.416;13.046;2023-12-20T00:26:22;29.85;;;12.70;;
35114;SDS011;21292;52.416;13.046;2023-12-20T00:28:55;36.20;;;13.20;;
35114;SDS011;21292;52.416;13.046;2023-12-20T00:31:23;35.83;;;13.52;;
35114;SDS011;21292;52.416;13.046;2023-12-20T00:33:52;29.02;;;13.07;;
35114;SDS011;21292;52.416;13.046;2023-12-20T00:36:24;35.38;;;14.30;;
35114;SDS011;21292;52.416;13.046;2023-12-20T00:38:53;29.90;;;12.93;;
35114;SDS011;21292;52.416;13.046;2023-12-20T00:41:24;35.13;;;13.13;;
35114;SDS011;21292;52.416;13.046;2023-12-20T00:43:53;33.53;;;12.18;;
35114;SDS011;21292;52.416;13.046;2023-12-20T00:46:22;36.83;;;14.10;;
35114;SDS011;21292;52.416;13.046;2023-12-20T00:48:56;34.50;;;14.48;;
35114;SDS011;21292;52.416;13.046;2023-12-20T00:51:24;35.25;;;14.23;;
35114;SDS011;21292;52.416;13.046;2023-12-20T00:53:56;35.22;;;13.63;;
35114;SDS011;21292;52.416;13.046;2023-12-20T00:56:26;36.20;;;14.65;;
35114;SDS011;21292;52.416;13.046;2023-12-20T00:58:55;33.58;;;14.80;;
35114;SDS011;21292;52.416;13.046;2023-12-20T01:01:24;36.33;;;14.63;;
35114;SDS011;21292;52.416;13.046;2023-12-20T01:03:53;28.38;;;13.45;;
35114;SDS011;21292;52.416;13.046;2023-12-20T01:06:22;36.97;;;14.32;;
35114;SDS011;21292;52.416;13.046;2023-12-20T01:08:52;35.40;;;14.52;;
35114;SDS011;21292;52.416;13.046;2023-12-20T01:11:21;32.35;;;14.25;;
35114;SDS011;21292;52.416;13.046;2023-12-20T01:13:52;29.90;;;12.73;;
35114;SDS011;21292;52.416;13.046;2023-12-20T01:16:20;41.00;;;16.77;;
35114;SDS011;21292;52.416;13.046;2023-12-20T01:18:48;35.05;;;14.73;;
35114;SDS011;21292;52.416;13.046;2023-12-20T01:21:18;37.63;;;15.40;;
35114;SDS011;21292;52.416;13.046;2023-12-20T01:23:47;33.00;;;14.35;;
35114;SDS011;21292;52.416;13.046;2023-12-20T01:26:16;35.63;;;13.43;;
35114;SDS011;21292;52.416;13.046;2023-12-20T01:28:45;34.40;;;14.65;;
35114;SDS011;21292;52.416;13.046;2023-12-20T01:31:15;37.65;;;14.52;;
35114;SDS011;21292;52.416;13.046;2023-12-20T01:33:44;34.92;;;14.77;;
35114;SDS011;21292;52.416;13.046;2023-12-20T01:36:13;39.38;;;15.02;;
35114;SDS011;21292;52.416;13.046;2023-12-20T01:38:42;31.42;;;15.05;;
35114;SDS011;21292;52.416;13.046;2023-12-20T01:41:11;39.13;;;16.00;;
35114;SDS011;21292;52.416;13.046;2023-12-20T01:43:39;36.20;;;14.93;;
35114;SDS011;21292;52.416;13.046;2023-12-20T01:46:19;33.67;;;14.70;;
35114;SDS011;21292;52.416;13.046;2023-12-20T01:48:48;35.47;;;15.23;;
35114;SDS011;21292;52.416;13.046;2023-12-20T01:51:18;31.92;;;14.00;;
35114;SDS011;21292;52.416;13.046;2023-12-20T01:53:46;40.75;;;15.55;;
35114;SDS011;21292;52.416;13.046;2023-12-20T01:56:15;37.78;;;17.13;;
35114;SDS011;21292;52.416;13.046;2023-12-20T01:58:45;40.33;;;18.05;;
35114;SDS011;21292;52.416;13.046;2023-12-20T02:01:15;41.97;;;17.02;;
35114;SDS011;21292;52.416;13.046;2023-12-20T02:03:47;43.35;;;17.90;;
35114;SDS011;21292;52.416;13.046;2023-12-20T02:06:19;47.53;;;17.45;;
35114;SDS011;21292;52.416;13.046;2023-12-20T02:08:50;47.10;;;18.73;;
35114;SDS011;21292;52.416;13.046;2023-12-20T02:11:19;46.47;;;17.95;;
35114;SDS011;21292;52.416;13.046;2023-12-20T02:13:47;49.35;;;19.45;;
35114;SDS011;21292;52.416;13.046;2023-12-20T02:16:16;51.33;;;19.48;;
35114;SDS011;21292;52.416;13.046;2023-12-20T02:18:47;52.20;;;19.77;;
35114;SDS011;21292;52.416;13.046;2023-12-20T02:21:16;52.22;;;18.25;;
35114;SDS011;21292;52.416;13.046;2023-12-20T02:23:46;54.15;;;19.88;;
35114;SDS011;21292;52.416;13.046;2023-12-20T02:26:15;49.22;;;18.15;;
35114;SDS011;21292;52.416;13.046;2023-12-20T02:28:45;47.72;;;18.17;;
35114;SDS011;21292;52.416;13.046;2023-12-20T02:31:16;55.92;;;19.73;;
35114;SDS011;21292;52.416;13.046;2023-12-20T02:33:45;50.00;;;18.80;;
35114;SDS011;21292;52.416;13.046;2023-12-20T02:36:13;52.65;;;20.15;;
35114;SDS011;21292;52.416;13.046;2023-12-20T02:38:42;49.17;;;19.45;;
35114;SDS011;21292;52.416;13.046;2023-12-20T02:41:13;47.78;;;17.98;;
35114;SDS011;21292;52.416;13.046;2023-12-20T02:43:43;49.70;;;18.70;;
35114;SDS011;21292;52.416;13.046;2023-12-20T02:46:12;52.63;;;18.67;;
35114;SDS011;21292;52.416;13.046;2023-12-20T02:48:42;49.20;;;19.40;;
35114;SDS011;21292;52.416;13.046;2023-12-20T02:51:11;56.22;;;19.77;;
35114;SDS011;21292;52.416;13.046;2023-12-20T02:53:39;50.90;;;19.15;;
35114;SDS011;21292;52.416;13.046;2023-12-20T02:56:08;50.60;;;17.90;;
35114;SDS011;21292;52.416;13.046;2023-12-20T02:58:43;48.45;;;17.52;;
35114;SDS011;21292;52.416;13.046;2023-12-20T03:01:11;49.50;;;18.05;;
35114;SDS011;21292;52.416;13.046;2023-12-20T03:03:41;47.58;;;18.23;;
35114;SDS011;21292;52.416;13.046;2023-12-20T03:06:10;47.60;;;17.52;;
35114;SDS011;21292;52.416;13.046;2023-12-20T03:08:39;51.30;;;18.13;;
35114;SDS011;21292;52.416;13.046;2023-12-20T03:11:08;45.47;;;16.60;;
35114;SDS011;21292;52.416;13.046;2023-12-20T03:13:37;48.28;;;18.05;;
35114;SDS011;21292;52.416;13.046;2023-12-20T03:16:09;48.00;;;16.88;;
35114;SDS011;21292;52.416;13.046;2023-12-20T03:18:37;47.90;;;17.48;;
35114;SDS011;21292;52.416;13.046;2023-12-20T03:21:07;47.92;;;16.50;;
35114;SDS011;21292;52.416;13.046;2023-12-20T03:23:35;55.65;;;17.77;;
35114;SDS011;21292;52.416;13.046;2023-12-20T03:26:06;43.35;;;15.82;;
35114;SDS011;21292;52.416;13.046;2023-12-20T03:28:36;55.45;;;17.52;;
35114;SDS011;21292;52.416;13.046;2023-12-20T03:31:04;53.67;;;17.23;;
35114;SDS011;21292;52.416;13.046;2023-12-20T03:33:35;40.92;;;15.75;;
35114;SDS011;21292;52.416;13.046;2023-12-20T03:36:04;47.87;;;17.53;;
35114;SDS011;21292;52.416;13.046;2023-12-20T03:38:34;51.80;;;16.50;;
35114;SDS011;21292;52.416;13.046;2023-12-20T03:41:04;47.25;;;17.25;;
35114;SDS011;21292;52.416;13.046;2023-12-20T03:43:34;49.07;;;15.93;;
35114;SDS011;21292;52.416;13.046;2023-12-20T03:46:04;50.20;;;16.45;;
35114;SDS011;21292;52.416;13.046;2023-12-20T03:48:34;50.95;;;16.73;;
35114;SDS011;21292;52.416;13.046;2023-12-20T03:51:04;45.33;;;15.73;;
35114;SDS011;21292;52.416;13.046;2023-12-20T03:53:34;46.78;;;16.10;;
35114;SDS011;21292;52.416;13.046;2023-12-20T03:56:02;40.72;;;14.57;;
35114;SDS011;21292;52.416;13.046;2023-12-20T03:58:31;40.65;;;14.57;;
35114;SDS011;21292;52.416;13.046;2023-12-20T04:00:59;43.17;;;13.32;;
35114;SDS011;21292;52.416;13.046;2023-12-20T04:03:28;37.38;;;13.63;;
35114;SDS011;21292;52.416;13.046;2023-12-20T04:05:58;28.65;;;11.48;;
35114;SDS011;21292;52.416;13.046;2023-12-20T04:08:27;36.40;;;12.45;;
35114;SDS011;21292;52.416;13.046;2023-12-20T04:10:56;37.95;;;11.63;;
35114;SDS011;21292;52.416;13.046;2023-12-20T04:13:25;34.40;;;10.75;;
35114;SDS011;21292;52.416;13.046;2023-12-20T04:15:58;34.38;;;10.07;;
35114;SDS011;21292;52.416;13.046;2023-12-20T04:18:27;33.80;;;10.30;;
35114;SDS011;21292;52.416;13.046;2023-12-20T04:20:58;27.80;;;9.50;;
35114;SDS011;21292;52.416;13.046;2023-12-20T04:23:26;21.90;;;7.53;;
35114;SDS011;21292;52.416;13.046;2023-12-20T04:25:55;25.50;;;6.82;;
35114;SDS011;21292;52.416;13.046;2023-12-20T04:28:23;25.63;;;7.60;;
35114;SDS011;21292;52.416;13.046;2023-12-20T04:30:52;23.00;;;6.03;;
35114;SDS011;21292;52.416;13.046;2023-12-20T04:33:21;14.20;;;6.32;;
35114;SDS011;21292;52.416;13.046;2023-12-20T04:35:50;30.65;;;7.25;;
35114;SDS011;21292;52.416;13.046;2023-12-20T04:38:21;26.45;;;7.20;;
35114;SDS011;21292;52.416;13.046;2023-12-20T04:40:50;18.17;;;5.20;;
35114;SDS011;21292;52.416;13.046;2023-12-20T04:43:18;23.33;;;5.38;;
35114;SDS011;21292;52.416;13.046;2023-12-20T04:45:47;19.20;;;5.05;;
35114;SDS011;21292;52.416;13.046;2023-12-20T04:48:15;20.25;;;3.45;;
35114;SDS011;21292;52.416;13.046;2023-12-20T04:50:44;18.63;;;3.97;;
35114;SDS011;21292;52.416;13.046;2023-12-20T04:53:14;9.23;;;3.80;;
35114;SDS011;21292;52.416;13.046;2023-12-20T04:55:44;18.52;;;4.03;;
35114;SDS011;21292;52.416;13.046;2023-12-20T04:58:12;15.27;;;3.88;;
35114;SDS011;21292;52.416;13.046;2023-12-20T05:00:42;21.33;;;3.38;;
35114;SDS011;21292;52.416;13.046;2023-12-20T05:03:11;22.20;;;3.25;;
35114;SDS011;21292;52.416;13.046;2023-12-20T05:05:39;9.80;;;4.43;;
35114;SDS011;21292;52.416;13.046;2023-12-20T05:08:09;14.50;;;3.42;;
35114;SDS011;21292;52.416;13.046;2023-12-20T05:10:37;17.20;;;2.92;;
35114;SDS011;21292;52.416;13.046;2023-12-20T05:13:08;20.65;;;3.28;;
35114;SDS011;21292;52.416;13.046;2023-12-20T05:15:37;20.58;;;3.58;;
35114;SDS011;21292;52.416;13.046;2023-12-20T05:18:06;19.33;;;3.53;;
35114;SDS011;21292;52.416;13.046;2023-12-20T05:20:36;11.05;;;3.13;;
35114;SDS011;21292;52.416;13.046;2023-12-20T05:23:04;14.27;;;3.05;;
35114;SDS011;21292;52.416;13.046;2023-12-20T05:25:35;17.38;;;3.00;;
35114;SDS011;21292;52.416;13.046;2023-12-20T05:28:04;13.63;;;3.33;;
35114;SDS011;21292;52.416;13.046;2023-12-20T05:30:37;14.95;;;3.47;;
35114;SDS011;21292;52.416;13.046;2023-12-20T05:33:06;22.30;;;3.78;;
35114;SDS011;21292;52.416;13.046;2023-12-20T05:35:34;22.83;;;3.92;;
35114;SDS011;21292;52.416;13.046;2023-12-20T05:38:03;21.23;;;4.45;;
35114;SDS011;21292;52.416;13.046;2023-12-20T05:40:38;13.13;;;3.50;;
35114;SDS011;21292;52.416;13.046;2023-12-20T05:43:07;16.95;;;3.75;;
35114;SDS011;21292;52.416;13.046;2023-12-20T05:45:38;17.95;;;4.07;;
35114;SDS011;21292;52.416;13.046;2023-12-20T05:48:07;19.95;;;4.80;;
35114;SDS011;21292;52.416;13.046;2023-12-20T05:50:35;25.92;;;4.35;;
35114;SDS011;21292;52.416;13.046;2023-12-20T05:53:07;14.07;;;4.05;;
35114;SDS011;21292;52.416;13.046;2023-12-20T05:55:36;25.23;;;4.45;;
35114;SDS011;21292;52.416;13.046;2023-12-20T05:58:05;19.92;;;4.80;;
35114;SDS011;21292;52.416;13.046;2023-12-20T06:00:33;23.75;;;4.60;;
35114;SDS011;21292;52.416;13.046;2023-12-20T06:03:03;15.57;;;3.67;;
35114;SDS011;21292;52.416;13.046;2023-12-20T06:05:33;19.02;;;4.25;;
35114;SDS011;21292;52.416;13.046;2023-12-20T06:08:02;14.88;;;4.40;;
35114;SDS011;21292;52.416;13.046;2023-12-20T06:10:31;9.15;;;4.40;;
35114;SDS011;21292;52.416;13.046;2023-12-20T06:13:00;20.85;;;4.18;;
35114;SDS011;21292;52.416;13.046;2023-12-20T06:15:28;16.83;;;3.65;;
35114;SDS011;21292;52.416;13.046;2023-12-20T06:17:58;19.63;;;4.68;;
35114;SDS011;21292;52.416;13.046;2023-12-20T06:20:29;15.55;;;4.97;;
35114;SDS011;21292;52.416;13.046;2023-12-20T06:23:00;15.98;;;4.32;;
35114;SDS011;21292;52.416;13.046;2023-12-20T06:25:31;14.40;;;4.32;;
35114;SDS011;21292;52.416;13.046;2023-12-20T06:28:00;16.67;;;4.55;;
35114;SDS011;21292;52.416;13.046;2023-12-20T06:30:29;18.92;;;4.90;;
35114;SDS011;21292;52.416;13.046;2023-12-20T06:32:59;19.92;;;3.58;;
35114;SDS011;21292;52.416;13.046;2023-12-20T06:35:27;20.50;;;4.22;;
35114;SDS011;21292;52.416;13.046;2023-12-20T06:38:01;17.45;;;4.97;;
35114;SDS011;21292;52.416;13.046;2023-12-20T06:40:31;13.75;;;4.30;;
35114;SDS011;21292;52.416;13.046;2023-12-20T06:42:59;16.67;;;4.20;;
35114;SDS011;21292;52.416;13.046;2023-12-20T06:45:41;9.93;;;3.88;;
35114;SDS011;21292;52.416;13.046;2023-12-20T06:48:11;14.77;;;4.32;;
35114;SDS011;21292;52.416;13.046;2023-12-20T06:50:40;21.23;;;5.22;;
35114;SDS011;21292;52.416;13.046;2023-12-20T06:53:11;14.45;;;4.88;;
35114;SDS011;21292;52.416;13.046;2023-12-20T06:55:41;16.23;;;3.88;;
35114;SDS011;21292;52.416;13.046;2023-12-20T06:58:09;18.42;;;4.38;;
35114;SDS011;21292;52.416;13.046;2023-12-20T07:00:39;9.50;;;3.35;;
35114;SDS011;21292;52.416;13.046;2023-12-20T07:03:08;24.35;;;5.07;;
35114;SDS011;21292;52.416;13.046;2023-12-20T07:05:37;17.52;;;4.50;;
35114;SDS011;21292;52.416;13.046;2023-12-20T07:08:11;28.05;;;4.95;;
35114;SDS011;21292;52.416;13.046;2023-12-20T07:13:09;22.13;;;4.82;;
35114;SDS011;21292;52.416;13.046;2023-12-20T07:15:40;28.60;;;5.28;;
35114;SDS011;21292;52.416;13.046;2023-12-20T07:18:09;13.85;;;4.03;;
35114;SDS011;21292;52.416;13.046;2023-12-20T07:20:38;18.25;;;4.30;;
35114;SDS011;21292;52.416;13.046;2023-12-20T07:23:08;19.77;;;4.97;;
35114;SDS011;21292;52.416;13.046;2023-12-20T07:25:40;13.45;;;4.40;;
35114;SDS011;21292;52.416;13.046;2023-12-20T07:28:08;16.65;;;3.70;;
35114;SDS011;21292;52.416;13.046;2023-12-20T07:30:39;17.20;;;3.47;;
35114;SDS011;21292;52.416;13.046;2023-12-20T07:33:08;17.00;;;3.23;;
35114;SDS011;21292;52.416;13.046;2023-12-20T07:35:41;18.63;;;4.30;;
35114;SDS011;21292;52.416;13.046;2023-12-20T07:38:10;23.25;;;3.95;;
35114;SDS011;21292;52.416;13.046;2023-12-20T07:40:40;16.20;;;3.90;;
35114;SDS011;21292;52.416;13.046;2023-12-20T07:43:08;17.23;;;4.50;;
35114;SDS011;21292;52.416;13.046;2023-12-20T07:45:38;24.88;;;5.00;;
35114;SDS011;21292;52.416;13.046;2023-12-20T07:48:09;10.40;;;3.10;;
35114;SDS011;21292;52.416;13.046;2023-12-20T07:50:42;16.48;;;4.65;;
35114;SDS011;21292;52.416;13.046;2023-12-20T07:53:10;24.30;;;4.75;;
35114;SDS011;21292;52.416;13.046;2023-12-20T07:55:41;14.85;;;4.20;;
35114;SDS011;21292;52.416;13.046;2023-12-20T07:58:10;22.15;;;3.65;;
35114;SDS011;21292;52.416;13.046;2023-12-20T08:00:39;18.30;;;4.00;;
35114;SDS011;21292;52.416;13.046;2023-12-20T08:03:10;15.00;;;3.90;;
35114;SDS011;21292;52.416;13.046;2023-12-20T08:05:38;14.45;;;3.70;;
35114;SDS011;21292;52.416;13.046;2023-12-20T08:08:07;24.98;;;5.88;;
35114;SDS011;21292;52.416;13.046;2023-12-20T08:10:36;9.80;;;3.50;;
35114;SDS011;21292;52.416;13.046;2023-12-20T08:13:07;17.77;;;3.95;;
35114;SDS011;21292;52.416;13.046;2023-12-20T08:15:35;19.25;;;3.33;;
35114;SDS011;21292;52.416;13.046;2023-12-20T08:18:05;24.08;;;4.30;;
35114;SDS011;21292;52.416;13.046;2023-12-20T08:20:34;15.50;;;4.18;;
35114;SDS011;21292;52.416;13.046;2023-12-20T08:23:07;17.40;;;3.80;;
35114;SDS011;21292;52.416;13.046;2023-12-20T08:25:35;16.88;;;4.43;;
35114;SDS011;21292;52.416;13.046;2023-12-20T08:28:04;20.17;;;4.32;;
35114;SDS011;21292;52.416;13.046;2023-12-20T08:30:35;19.08;;;3.80;;
35114;SDS011;21292;52.416;13.046;2023-12-20T08:33:03;13.82;;;3.92;;
35114;SDS011;21292;52.416;13.046;2023-12-20T08:35:38;30.90;;;4.40;;
35114;SDS011;21292;52.416;13.046;2023-12-20T08:38:10;30.63;;;4.45;;
35114;SDS011;21292;52.416;13.046;2023-12-20T08:40:38;18.08;;;4.00;;
35114;SDS011;21292;52.416;13.046;2023-12-20T08:43:06;20.65;;;4.68;;
35114;SDS011;21292;52.416;13.046;2023-12-20T08:45:37;13.40;;;4.00;;
35114;SDS011;21292;52.416;13.046;2023-12-20T08:48:06;14.40;;;4.60;;
35114;SDS011;21292;52.416;13.046;2023-12-20T08:50:36;17.48;;;4.70;;
35114;SDS011;21292;52.416;13.046;2023-12-20T08:53:04;17.35;;;4.10;;
35114;SDS011;21292;52.416;13.046;2023-12-20T08:55:32;14.85;;;3.80;;
35114;SDS011;21292;52.416;13.046;2023-12-20T08:58:01;11.05;;;4.07;;
35114;SDS011;21292;52.416;13.046;2023-12-20T09:00:29;17.52;;;4.20;;
35114;SDS011;21292;52.416;13.046;2023-12-20T09:03:00;18.75;;;4.95;;
35114;SDS011;21292;52.416;13.046;2023-12-20T09:07:59;18.40;;;4.35;;
35114;SDS011;21292;52.416;13.046;2023-12-20T09:10:30;22.25;;;4.38;;
35114;SDS011;21292;52.416;13.046;2023-12-20T09:13:01;12.80;;;4.20;;
35114;SDS011;21292;52.416;13.046;2023-12-20T09:15:31;25.02;;;4.03;;
35114;SDS011;21292;52.416;13.046;2023-12-20T09:18:04;16.33;;;3.90;;
35114;SDS011;21292;52.416;13.046;2023-12-20T09:20:33;16.63;;;3.90;;
35114;SDS011;21292;52.416;13.046;2023-12-20T09:23:02;15.85;;;4.50;;
35114;SDS011;21292;52.416;13.046;2023-12-20T09:25:31;13.27;;;4.40;;
35114;SDS011;21292;52.416;13.046;2023-12-20T09:28:01;12.88;;;3.83;;
35114;SDS011;21292;52.416;13.046;2023-12-20T09:30:29;7.53;;;3.70;;
35114;SDS011;21292;52.416;13.046;2023-12-20T09:32:58;16.58;;;5.65;;
35114;SDS011;21292;52.416;13.046;2023-12-20T09:35:28;19.40;;;4.22;;
35114;SDS011;21292;52.416;13.046;2023-12-20T09:37:57;16.20;;;4.30;;
35114;SDS011;21292;52.416;13.046;2023-12-20T09:40:26;18.92;;;4.90;;
35114;SDS011;21292;52.416;13.046;2023-12-20T09:42:58;17.50;;;4.18;;
35114;SDS011;21292;52.416;13.046;2023-12-20T09:45:32;31.30;;;4.03;;
35114;SDS011;21292;52.416;13.046;2023-12-20T09:48:02;16.83;;;3.97;;
35114;SDS011;21292;52.416;13.046;2023-12-20T09:50:33;19.33;;;4.32;;
35114;SDS011;21292;52.416;13.046;2023-12-20T09:53:02;16.02;;;4.07;;
35114;SDS011;21292;52.416;13.046;2023-12-20T09:55:37;12.52;;;3.50;;
35114;SDS011;21292;52.416;13.046;2023-12-20T09:58:07;14.98;;;4.10;;
35114;SDS011;21292;52.416;13.046;2023-12-20T10:00:35;14.25;;;3.92;;
35114;SDS011;21292;52.416;13.046;2023-12-20T10:03:06;15.85;;;4.05;;
35114;SDS011;21292;52.416;13.046;2023-12-20T10:05:36;21.35;;;4.40;;
35114;SDS011;21292;52.416;13.046;2023-12-20T10:08:06;16.25;;;4.20;;
35114;SDS011;21292;52.416;13.046;2023-12-20T10:10:35;16.88;;;3.80;;
35114;SDS011;21292;52.416;13.046;2023-12-20T10:13:14;13.65;;;4.43;;
35114;SDS011;21292;52.416;13.046;2023-12-20T10:15:44;24.00;;;5.80;;
35114;SDS011;21292;52.416;13.046;2023-12-20T10:18:14;20.05;;;4.15;;
35114;SDS011;21292;52.416;13.046;2023-12-20T10:20:45;17.50;;;5.32;;
35114;SDS011;21292;52.416;13.046;2023-12-20T10:23:16;17.13;;;3.88;;
35114;SDS011;21292;52.416;13.046;2023-12-20T10:25:52;20.80;;;5.38;;
35114;SDS011;21292;52.416;13.046;2023-12-20T10:28:24;14.63;;;3.95;;
35114;SDS011;21292;52.416;13.046;2023-12-20T10:30:55;15.93;;;4.65;;
35114;SDS011;21292;52.416;13.046;2023-12-20T10:33:25;18.58;;;5.03;;
35114;SDS011;21292;52.416;13.046;2023-12-20T10:35:57;10.25;;;3.55;;
35114;SDS011;21292;52.416;13.046;2023-12-20T10:38:26;10.15;;;3.35;;
35114;SDS011;21292;52.416;13.046;2023-12-20T10:40:57;19.73;;;4.03;;
35114;SDS011;21292;52.416;13.046;2023-12-20T10:43:28;21.35;;;4.05;;
35114;SDS011;21292;52.416;13.046;2023-12-20T10:45:57;11.35;;;3.38;;
35114;SDS011;21292;52.416;13.046;2023-12-20T10:48:29;13.18;;;4.50;;
35114;SDS011;21292;52.416;13.046;2023-12-20T10:51:02;19.52;;;3.58;;
35114;SDS011;21292;52.416;13.046;2023-12-20T10:53:32;17.33;;;3.97;;
35114;SDS011;21292;52.416;13.046;2023-12-20T10:56:03;14.95;;;3.50;;
35114;SDS011;21292;52.416;13.046;2023-12-20T10:58:34;8.15;;;3.10;;
35114;SDS011;21292;52.416;13.046;2023-12-20T11:01:04;8.52;;;2.53;;
35114;SDS011;21292;52.416;13.046;2023-12-20T11:03:34;7.93;;;3.03;;
35114;SDS011;21292;52.416;13.046;2023-12-20T11:06:07;10.38;;;2.67;;
35114;SDS011;21292;52.416;13.046;2023-12-20T11:08:39;8.30;;;2.72;;
35114;SDS011;21292;52.416;13.046;2023-12-20T11:11:13;13.10;;;3.22;;
35114;SDS011;21292;52.416;13.046;2023-12-20T11:13:48;13.05;;;3.40;;
35114;SDS011;21292;52.416;13.046;2023-12-20T11:16:22;16.55;;;3.65;;
35114;SDS011;21292;52.416;13.046;2023-12-20T11:19:04;11.95;;;3.67;;
35114;SDS011;21292;52.416;13.046;2023-12-20T11:21:35;8.80;;;3.13;;
35114;SDS011;21292;52.416;13.046;2023-12-20T11:24:06;10.43;;;2.78;;
35114;SDS011;21292;52.416;13.046;2023-12-20T11:26:36;17.67;;;3.88;;
35114;SDS011;21292;52.416;13.046;2023-12-20T11:32:27;14.45;;;2.65;;
35114;SDS011;21292;52.416;13.046;2023-12-20T11:34:57;15.52;;;2.58;;
35114;SDS011;21292;52.416;13.046;2023-12-20T11:37:35;9.43;;;2.40;;
35114;SDS011;21292;52.416;13.046;2023-12-20T11:40:06;19.08;;;4.28;;
35114;SDS011;21292;52.416;13.046;2023-12-20T11:42:37;13.38;;;2.83;;
35114;SDS011;21292;52.416;13.046;2023-12-20T11:45:08;7.85;;;3.47;;
35114;SDS011;21292;52.416;13.046;2023-12-20T11:47:42;12.35;;;3.25;;
35114;SDS011;21292;52.416;13.046;2023-12-20T11:50:12;19.73;;;3.45;;
35114;SDS011;21292;52.416;13.046;2023-12-20T11:52:44;13.50;;;2.63;;
35114;SDS011;21292;52.416;13.046;2023-12-20T11:55:19;9.55;;;2.22;;
35114;SDS011;21292;52.416;13.046;2023-12-20T11:57:51;10.10;;;2.55;;
35114;SDS011;21292;52.416;13.046;2023-12-20T12:00:21;15.05;;;3.05;;
35114;SDS011;21292;52.416;13.046;2023-12-20T12:02:56;10.18;;;2.55;;
35114;SDS011;21292;52.416;13.046;2023-12-20T12:05:25;13.48;;;2.67;;
35114;SDS011;21292;52.416;13.046;2023-12-20T12:07:55;12.55;;;2.85;;
35114;SDS011;21292;52.416;13.046;2023-12-20T12:10:23;12.23;;;2.10;;
35114;SDS011;21292;52.416;13.046;2023-12-20T12:12:52;6.78;;;2.33;;
35114;SDS011;21292;52.416;13.046;2023-12-20T12:15:21;8.93;;;2.15;;
35114;SDS011;21292;52.416;13.046;2023-12-20T12:17:53;5.78;;;2.42;;
35114;SDS011;21292;52.416;13.046;2023-12-20T12:20:22;9.73;;;2.22;;
35114;SDS011;21292;52.416;13.046;2023-12-20T12:23:01;12.88;;;3.08;;
35114;SDS011;21292;52.416;13.046;2023-12-20T12:25:31;8.13;;;2.40;;
35114;SDS011;21292;52.416;13.046;2023-12-20T12:28:09;12.57;;;2.80;;
35114;SDS011;21292;52.416;13.046;2023-12-20T12:30:40;8.27;;;2.25;;
35114;SDS011;21292;52.416;13.046;2023-12-20T12:33:19;5.57;;;2.13;;
35114;SDS011;21292;52.416;13.046;2023-12-20T12:35:51;9.65;;;2.78;;
35114;SDS011;21292;52.416;13.046;2023-12-20T12:38:24;10.93;;;3.03;;
35114;SDS011;21292;52.416;13.046;2023-12-20T12:40:54;9.77;;;2.65;;
35114;SDS011;21292;52.416;13.046;2023-12-20T12:43:23;8.63;;;3.15;;
35114;SDS011;21292;52.416;13.046;2023-12-20T12:45:52;12.45;;;3.25;;
35114;SDS011;21292;52.416;13.046;2023-12-20T12:48:22;10.18;;;2.63;;
35114;SDS011;21292;52.416;13.046;2023-12-20T12:50:51;12.35;;;3.38;;
35114;SDS011;21292;52.416;13.046;2023-12-20T12:53:24;16.27;;;2.97;;
35114;SDS011;21292;52.416;13.046;2023-12-20T12:55:52;9.00;;;3.03;;
35114;SDS011;21292;52.416;13.046;2023-12-20T12:58:24;7.40;;;3.05;;
35114;SDS011;21292;52.416;13.046;2023-12-20T13:00:53;11.95;;;3.85;;
35114;SDS011;21292;52.416;13.046;2023-12-20T13:03:22;8.48;;;3.35;;
35114;SDS011;21292;52.416;13.046;2023-12-20T13:05:58;7.40;;;3.20;;
35114;SDS011;21292;52.416;13.046;2023-12-20T13:08:28;11.63;;;3.50;;
35114;SDS011;21292;52.416;13.046;2023-12-20T13:10:57;15.57;;;4.20;;
35114;SDS011;21292;52.416;13.046;2023-12-20T13:13:28;11.77;;;4.25;;
35114;SDS011;21292;52.416;13.046;2023-12-20T13:15:58;10.27;;;4.07;;
35114;SDS011;21292;52.416;13.046;2023-12-20T13:18:28;14.15;;;6.18;;
35114;SDS011;21292;52.416;13.046;2023-12-20T13:21:04;13.85;;;4.93;;
35114;SDS011;21292;52.416;13.046;2023-12-20T13:23:35;12.02;;;4.03;;
35114;SDS011;21292;52.416;13.046;2023-12-20T13:26:07;6.90;;;2.95;;
35114;SDS011;21292;52.416;13.046;2023-12-20T13:28:35;6.03;;;2.33;;
35114;SDS011;21292;52.416;13.046;2023-12-20T13:31:03;2.50;;;1.63;;
35114;SDS011;21292;52.416;13.046;2023-12-20T13:33:32;2.85;;;1.38;;
35114;SDS011;21292;52.416;13.046;2023-12-20T13:36:01;3.08;;;1.23;;
35114;SDS011;21292;52.416;13.046;2023-12-20T13:44:11;1.73;;;0.82;;
35114;SDS011;21292;52.416;13.046;2023-12-20T13:46:39;3.15;;;1.02;;
35114;SDS011;21292;52.416;13.046;2023-12-20T13:49:08;1.10;;;0.82;;
35114;SDS011;21292;52.416;13.046;2023-12-20T13:51:38;2.22;;;0.70;;
35114;SDS011;21292;52.416;13.046;2023-12-20T13:54:06;2.47;;;1.08;;
35114;SDS011;21292;52.416;13.046;2023-12-20T13:56:35;4.10;;;1.00;;
35114;SDS011;21292;52.416;13.046;2023-12-20T13:59:15;2.13;;;0.90;;
35114;SDS011;21292;52.416;13.046;2023-12-20T14:01:43;1.60;;;1.00;;
35114;SDS011;21292;52.416;13.046;2023-12-20T14:04:11;3.97;;;1.10;;
35114;SDS011;21292;52.416;13.046;2023-12-20T14:06:59;4.45;;;1.17;;
35114;SDS011;21292;52.416;13.046;2023-12-20T14:09:28;2.78;;;1.13;;
35114;SDS011;21292;52.416;13.046;2023-12-20T14:11:56;5.82;;;1.50;;
35114;SDS011;21292;52.416;13.046;2023-12-20T14:14:26;2.47;;;1.17;;
35114;SDS011;21292;52.416;13.046;2023-12-20T14:16:54;8.60;;;1.67;;
35114;SDS011;21292;52.416;13.046;2023-12-20T14:19:22;7.07;;;1.48;;
35114;SDS011;21292;52.416;13.046;2023-12-20T14:21:50;4.75;;;2.10;;
35114;SDS011;21292;52.416;13.046;2023-12-20T14:24:19;2.17;;;1.92;;
35114;SDS011;21292;52.416;13.046;2023-12-20T14:26:47;3.47;;;2.10;;
35114;SDS011;21292;52.416;13.046;2023-12-20T14:29:15;2.55;;;1.80;;
35114;SDS011;21292;52.416;13.046;2023-12-20T14:31:44;6.72;;;2.33;;
35114;SDS011;21292;52.416;13.046;2023-12-20T14:34:12;3.70;;;1.92;;
35114;SDS011;21292;52.416;13.046;2023-12-20T14:36:41;3.50;;;2.20;;
35114;SDS011;21292;52.416;13.046;2023-12-20T14:39:09;2.05;;;1.70;;
35114;SDS011;21292;52.416;13.046;2023-12-20T14:41:39;4.18;;;1.90;;
35114;SDS011;21292;52.416;13.046;2023-12-20T14:44:07;5.47;;;1.98;;
35114;SDS011;21292;52.416;13.046;2023-12-20T14:46:35;3.92;;;1.60;;
35114;SDS011;21292;52.416;13.046;2023-12-20T14:49:09;6.25;;;1.65;;
35114;SDS011;21292;52.416;13.046;2023-12-20T14:51:37;3.70;;;1.38;;